sensor_id;sensor_type;location;lat;lon;timestamp;P1;durP1;ratioP1;P2;durP2;ratioP2
46447;SDS011;32145;50.390;30.778;2024-03-02T00:02:14;37.13;;;19.52;;
46447;SDS011;32145;50.390;30.778;2024-03-02T00:05:10;40.60;;;19.80;;
46447;SDS011;32145;50.390;30.778;2024-03-02T00:08:06;37.45;;;20.52;;
46447;SDS011;32145;50.390;30.778;2024-03-02T00:11:01;37.28;;;18.95;;
46447;SDS011;32145;50.390;30.778;2024-03-02T00:13:57;38.35;;;20.23;;
46447;SDS011;32145;50.390;30.778;2024-03-02T00:16:54;42.60;;;20.40;;
46447;SDS011;32145;50.390;30.778;2024-03-02T00:19:51;39.05;;;20.98;;
46447;SDS011;32145;50.390;30.778;2024-03-02T00:22:48;36.17;;;20.55;;
46447;SDS011;32145;50.390;30.778;2024-03-02T00:25:45;41.53;;;20.50;;
46447;SDS011;32145;50.390;30.778;2024-03-02T00:28:44;44.80;;;21.73;;
46447;SDS011;32145;50.390;30.778;2024-03-02T00:31:41;39.38;;;21.35;;
46447;SDS011;32145;50.390;30.778;2024-03-02T00:34:38;36.75;;;21.23;;
46447;SDS011;32145;50.390;30.778;2024-03-02T00:37:34;40.15;;;20.63;;
46447;SDS011;32145;50.390;30.778;2024-03-02T00:40:30;40.05;;;20.33;;
46447;SDS011;32145;50.390;30.778;2024-03-02T00:43:38;42.70;;;21.98;;
46447;SDS011;32145;50.390;30.778;2024-03-02T00:49:35;42.55;;;20.75;;
46447;SDS011;32145;50.390;30.778;2024-03-02T00:52:31;40.17;;;21.83;;
46447;SDS011;32145;50.390;30.778;2024-03-02T00:55:28;45.28;;;23.35;;
46447;SDS011;32145;50.390;30.778;2024-03-02T00:58:24;46.60;;;22.95;;
46447;SDS011;32145;50.390;30.778;2024-03-02T01:01:20;39.58;;;21.88;;
46447;SDS011;32145;50.390;30.778;2024-03-02T01:04:16;43.20;;;22.17;;
46447;SDS011;32145;50.390;30.778;2024-03-02T01:07:14;45.78;;;24.00;;
46447;SDS011;32145;50.390;30.778;2024-03-02T01:10:10;42.85;;;22.75;;
46447;SDS011;32145;50.390;30.778;2024-03-02T01:13:07;47.42;;;24.77;;
46447;SDS011;32145;50.390;30.778;2024-03-02T01:16:04;38.25;;;21.20;;
46447;SDS011;32145;50.390;30.778;2024-03-02T01:19:00;40.25;;;22.40;;
46447;SDS011;32145;50.390;30.778;2024-03-02T01:21:57;43.65;;;23.05;;
46447;SDS011;32145;50.390;30.778;2024-03-02T01:24:54;42.83;;;24.33;;
46447;SDS011;32145;50.390;30.778;2024-03-02T01:27:51;43.85;;;23.08;;
46447;SDS011;32145;50.390;30.778;2024-03-02T01:30:47;41.92;;;23.83;;
46447;SDS011;32145;50.390;30.778;2024-03-02T01:33:43;41.65;;;23.33;;
46447;SDS011;32145;50.390;30.778;2024-03-02T01:36:40;42.42;;;21.90;;
46447;SDS011;32145;50.390;30.778;2024-03-02T01:39:34;38.65;;;22.13;;
46447;SDS011;32145;50.390;30.778;2024-03-02T01:42:30;52.67;;;24.38;;
46447;SDS011;32145;50.390;30.778;2024-03-02T01:45:24;46.30;;;25.30;;
46447;SDS011;32145;50.390;30.778;2024-03-02T01:48:18;46.72;;;24.45;;
46447;SDS011;32145;50.390;30.778;2024-03-02T01:51:12;47.00;;;24.38;;
46447;SDS011;32145;50.390;30.778;2024-03-02T01:54:06;46.65;;;24.25;;
46447;SDS011;32145;50.390;30.778;2024-03-02T01:57:03;40.67;;;23.17;;
46447;SDS011;32145;50.390;30.778;2024-03-02T02:00:01;46.28;;;23.98;;
46447;SDS011;32145;50.390;30.778;2024-03-02T02:02:55;40.28;;;23.42;;
46447;SDS011;32145;50.390;30.778;2024-03-02T02:05:50;42.33;;;22.95;;
46447;SDS011;32145;50.390;30.778;2024-03-02T02:08:44;41.20;;;22.67;;
46447;SDS011;32145;50.390;30.778;2024-03-02T02:11:38;43.85;;;22.88;;
46447;SDS011;32145;50.390;30.778;2024-03-02T02:14:33;41.17;;;22.42;;
46447;SDS011;32145;50.390;30.778;2024-03-02T02:17:28;39.35;;;22.27;;
46447;SDS011;32145;50.390;30.778;2024-03-02T02:20:25;45.03;;;21.13;;
46447;SDS011;32145;50.390;30.778;2024-03-02T02:23:23;38.85;;;22.00;;
46447;SDS011;32145;50.390;30.778;2024-03-02T02:26:19;41.17;;;21.83;;
46447;SDS011;32145;50.390;30.778;2024-03-02T02:29:13;41.55;;;22.23;;
46447;SDS011;32145;50.390;30.778;2024-03-02T02:32:08;38.35;;;21.33;;
46447;SDS011;32145;50.390;30.778;2024-03-02T02:35:05;43.03;;;22.58;;
46447;SDS011;32145;50.390;30.778;2024-03-02T02:38:02;44.30;;;23.48;;
46447;SDS011;32145;50.390;30.778;2024-03-02T02:41:00;40.30;;;21.90;;
46447;SDS011;32145;50.390;30.778;2024-03-02T02:43:55;38.70;;;21.80;;
46447;SDS011;32145;50.390;30.778;2024-03-02T02:46:49;42.83;;;23.20;;
46447;SDS011;32145;50.390;30.778;2024-03-02T02:49:43;43.65;;;23.13;;
46447;SDS011;32145;50.390;30.778;2024-03-02T02:52:38;43.20;;;21.60;;
46447;SDS011;32145;50.390;30.778;2024-03-02T02:55:35;42.00;;;22.02;;
46447;SDS011;32145;50.390;30.778;2024-03-02T02:58:33;43.63;;;23.40;;
46447;SDS011;32145;50.390;30.778;2024-03-02T03:01:29;44.92;;;24.38;;
46447;SDS011;32145;50.390;30.778;2024-03-02T03:04:23;44.28;;;23.13;;
46447;SDS011;32145;50.390;30.778;2024-03-02T03:07:18;40.90;;;22.45;;
46447;SDS011;32145;50.390;30.778;2024-03-02T03:10:14;43.08;;;22.95;;
46447;SDS011;32145;50.390;30.778;2024-03-02T03:13:10;42.97;;;22.10;;
46447;SDS011;32145;50.390;30.778;2024-03-02T03:16:08;41.55;;;22.88;;
46447;SDS011;32145;50.390;30.778;2024-03-02T03:19:04;47.28;;;24.80;;
46447;SDS011;32145;50.390;30.778;2024-03-02T03:22:00;43.53;;;23.42;;
46447;SDS011;32145;50.390;30.778;2024-03-02T03:24:55;42.92;;;22.20;;
46447;SDS011;32145;50.390;30.778;2024-03-02T03:27:49;39.42;;;21.60;;
46447;SDS011;32145;50.390;30.778;2024-03-02T03:30:44;39.90;;;22.77;;
46447;SDS011;32145;50.390;30.778;2024-03-02T03:33:39;43.90;;;23.23;;
46447;SDS011;32145;50.390;30.778;2024-03-02T03:36:35;45.00;;;24.73;;
46447;SDS011;32145;50.390;30.778;2024-03-02T03:39:33;48.67;;;25.50;;
46447;SDS011;32145;50.390;30.778;2024-03-02T03:42:30;47.70;;;25.08;;
46447;SDS011;32145;50.390;30.778;2024-03-02T03:45:24;49.47;;;23.98;;
46447;SDS011;32145;50.390;30.778;2024-03-02T03:48:18;46.22;;;24.48;;
46447;SDS011;32145;50.390;30.778;2024-03-02T03:51:14;39.22;;;22.20;;
46447;SDS011;32145;50.390;30.778;2024-03-02T03:54:08;44.05;;;22.67;;
46447;SDS011;32145;50.390;30.778;2024-03-02T03:57:05;40.15;;;21.58;;
46447;SDS011;32145;50.390;30.778;2024-03-02T04:00:01;41.83;;;23.48;;
46447;SDS011;32145;50.390;30.778;2024-03-02T04:02:58;45.20;;;22.60;;
46447;SDS011;32145;50.390;30.778;2024-03-02T04:05:55;43.30;;;22.25;;
46447;SDS011;32145;50.390;30.778;2024-03-02T04:08:52;43.65;;;22.60;;
46447;SDS011;32145;50.390;30.778;2024-03-02T04:11:49;41.63;;;22.23;;
46447;SDS011;32145;50.390;30.778;2024-03-02T04:14:45;40.60;;;22.30;;
46447;SDS011;32145;50.390;30.778;2024-03-02T04:17:41;39.92;;;20.80;;
46447;SDS011;32145;50.390;30.778;2024-03-02T04:20:38;43.42;;;22.55;;
46447;SDS011;32145;50.390;30.778;2024-03-02T04:23:34;41.17;;;22.85;;
46447;SDS011;32145;50.390;30.778;2024-03-02T04:26:32;41.17;;;21.85;;
46447;SDS011;32145;50.390;30.778;2024-03-02T04:29:26;40.80;;;21.40;;
46447;SDS011;32145;50.390;30.778;2024-03-02T04:32:21;42.95;;;22.73;;
46447;SDS011;32145;50.390;30.778;2024-03-02T04:35:15;40.92;;;22.85;;
46447;SDS011;32145;50.390;30.778;2024-03-02T04:38:09;41.75;;;22.80;;
46447;SDS011;32145;50.390;30.778;2024-03-02T04:41:03;39.13;;;21.50;;
46447;SDS011;32145;50.390;30.778;2024-03-02T04:44:00;38.70;;;21.83;;
46447;SDS011;32145;50.390;30.778;2024-03-02T04:46:56;37.88;;;21.77;;
46447;SDS011;32145;50.390;30.778;2024-03-02T04:49:52;42.35;;;22.40;;
46447;SDS011;32145;50.390;30.778;2024-03-02T04:52:49;39.00;;;20.58;;
46447;SDS011;32145;50.390;30.778;2024-03-02T04:55:45;40.22;;;21.08;;
46447;SDS011;32145;50.390;30.778;2024-03-02T04:58:41;41.55;;;21.67;;
46447;SDS011;32145;50.390;30.778;2024-03-02T05:01:39;40.38;;;21.65;;
46447;SDS011;32145;50.390;30.778;2024-03-02T05:04:36;40.72;;;21.15;;
46447;SDS011;32145;50.390;30.778;2024-03-02T05:07:32;40.97;;;21.85;;
46447;SDS011;32145;50.390;30.778;2024-03-02T05:10:28;37.42;;;20.80;;
46447;SDS011;32145;50.390;30.778;2024-03-02T05:13:25;42.40;;;21.98;;
46447;SDS011;32145;50.390;30.778;2024-03-02T05:16:21;42.95;;;21.63;;
46447;SDS011;32145;50.390;30.778;2024-03-02T05:19:19;42.97;;;21.15;;
46447;SDS011;32145;50.390;30.778;2024-03-02T05:22:15;39.85;;;20.92;;
46447;SDS011;32145;50.390;30.778;2024-03-02T05:25:11;39.10;;;20.77;;
46447;SDS011;32145;50.390;30.778;2024-03-02T05:28:08;44.05;;;21.25;;
46447;SDS011;32145;50.390;30.778;2024-03-02T05:31:04;37.00;;;20.90;;
46447;SDS011;32145;50.390;30.778;2024-03-02T05:34:00;40.53;;;20.83;;
46447;SDS011;32145;50.390;30.778;2024-03-02T05:36:56;37.13;;;20.48;;
46447;SDS011;32145;50.390;30.778;2024-03-02T05:39:50;36.33;;;20.42;;
46447;SDS011;32145;50.390;30.778;2024-03-02T05:42:44;36.08;;;21.00;;
46447;SDS011;32145;50.390;30.778;2024-03-02T05:45:39;39.10;;;21.08;;
46447;SDS011;32145;50.390;30.778;2024-03-02T05:48:33;41.40;;;21.05;;
46447;SDS011;32145;50.390;30.778;2024-03-02T05:51:27;37.97;;;21.23;;
46447;SDS011;32145;50.390;30.778;2024-03-02T05:54:23;41.45;;;21.85;;
46447;SDS011;32145;50.390;30.778;2024-03-02T05:57:17;37.20;;;20.35;;
46447;SDS011;32145;50.390;30.778;2024-03-02T06:00:12;39.25;;;20.25;;
46447;SDS011;32145;50.390;30.778;2024-03-02T06:03:06;39.30;;;19.83;;
46447;SDS011;32145;50.390;30.778;2024-03-02T06:06:01;36.08;;;19.45;;
46447;SDS011;32145;50.390;30.778;2024-03-02T06:08:56;37.17;;;20.52;;
46447;SDS011;32145;50.390;30.778;2024-03-02T06:11:51;37.20;;;20.45;;
46447;SDS011;32145;50.390;30.778;2024-03-02T06:14:45;40.50;;;20.90;;
46447;SDS011;32145;50.390;30.778;2024-03-02T06:17:40;39.10;;;20.75;;
46447;SDS011;32145;50.390;30.778;2024-03-02T06:20:34;36.92;;;20.50;;
46447;SDS011;32145;50.390;30.778;2024-03-02T06:23:29;35.78;;;19.77;;
46447;SDS011;32145;50.390;30.778;2024-03-02T06:26:23;34.88;;;19.85;;
46447;SDS011;32145;50.390;30.778;2024-03-02T06:29:19;41.60;;;22.10;;
46447;SDS011;32145;50.390;30.778;2024-03-02T06:32:15;37.15;;;18.92;;
46447;SDS011;32145;50.390;30.778;2024-03-02T06:35:11;33.25;;;18.27;;
46447;SDS011;32145;50.390;30.778;2024-03-02T06:38:06;33.65;;;19.30;;
46447;SDS011;32145;50.390;30.778;2024-03-02T06:41:00;37.50;;;19.05;;
46447;SDS011;32145;50.390;30.778;2024-03-02T06:43:54;38.60;;;19.85;;
46447;SDS011;32145;50.390;30.778;2024-03-02T06:46:50;35.10;;;19.83;;
46447;SDS011;32145;50.390;30.778;2024-03-02T06:49:44;34.45;;;19.65;;
46447;SDS011;32145;50.390;30.778;2024-03-02T06:52:38;34.97;;;19.20;;
46447;SDS011;32145;50.390;30.778;2024-03-02T06:55:33;33.85;;;18.70;;
46447;SDS011;32145;50.390;30.778;2024-03-02T06:58:27;34.95;;;18.83;;
46447;SDS011;32145;50.390;30.778;2024-03-02T07:01:21;36.53;;;18.52;;
46447;SDS011;32145;50.390;30.778;2024-03-02T07:04:17;35.30;;;18.55;;
46447;SDS011;32145;50.390;30.778;2024-03-02T07:07:12;35.17;;;18.77;;
46447;SDS011;32145;50.390;30.778;2024-03-02T07:10:06;33.20;;;17.98;;
46447;SDS011;32145;50.390;30.778;2024-03-02T07:12:51;31.42;;;16.95;;
46447;SDS011;32145;50.390;30.778;2024-03-02T07:15:35;32.55;;;18.23;;
46447;SDS011;32145;50.390;30.778;2024-03-02T07:18:29;35.90;;;18.08;;
46447;SDS011;32145;50.390;30.778;2024-03-02T07:21:27;32.80;;;18.83;;
46447;SDS011;32145;50.390;30.778;2024-03-02T07:24:11;34.88;;;18.65;;
46447;SDS011;32145;50.390;30.778;2024-03-02T07:26:55;35.00;;;18.23;;
46447;SDS011;32145;50.390;30.778;2024-03-02T07:29:39;34.13;;;18.55;;
46447;SDS011;32145;50.390;30.778;2024-03-02T07:32:33;34.88;;;18.95;;
46447;SDS011;32145;50.390;30.778;2024-03-02T07:35:28;34.67;;;19.45;;
46447;SDS011;32145;50.390;30.778;2024-03-02T07:38:14;31.65;;;17.73;;
46447;SDS011;32145;50.390;30.778;2024-03-02T07:40:58;32.22;;;17.60;;
46447;SDS011;32145;50.390;30.778;2024-03-02T07:43:52;33.75;;;18.23;;
46447;SDS011;32145;50.390;30.778;2024-03-02T07:46:36;34.03;;;17.95;;
46447;SDS011;32145;50.390;30.778;2024-03-02T07:49:20;31.27;;;18.33;;
46447;SDS011;32145;50.390;30.778;2024-03-02T07:52:15;32.53;;;18.75;;
46447;SDS011;32145;50.390;30.778;2024-03-02T07:55:01;38.40;;;21.13;;
46447;SDS011;32145;50.390;30.778;2024-03-02T07:57:57;33.85;;;18.90;;
46447;SDS011;32145;50.390;30.778;2024-03-02T08:00:41;38.70;;;22.35;;
46447;SDS011;32145;50.390;30.778;2024-03-02T08:03:25;29.98;;;16.30;;
46447;SDS011;32145;50.390;30.778;2024-03-02T08:06:22;29.23;;;16.35;;
46447;SDS011;32145;50.390;30.778;2024-03-02T08:09:18;31.98;;;14.93;;
46447;SDS011;32145;50.390;30.778;2024-03-02T08:12:03;26.85;;;15.75;;
46447;SDS011;32145;50.390;30.778;2024-03-02T08:14:58;26.55;;;15.48;;
46447;SDS011;32145;50.390;30.778;2024-03-02T08:17:42;27.02;;;15.93;;
46447;SDS011;32145;50.390;30.778;2024-03-02T08:20:38;26.13;;;15.82;;
46447;SDS011;32145;50.390;30.778;2024-03-02T08:23:32;30.42;;;16.25;;
46447;SDS011;32145;50.390;30.778;2024-03-02T08:26:16;27.50;;;15.68;;
46447;SDS011;32145;50.390;30.778;2024-03-02T08:29:01;27.23;;;16.48;;
46447;SDS011;32145;50.390;30.778;2024-03-02T08:31:57;27.90;;;15.82;;
46447;SDS011;32145;50.390;30.778;2024-03-02T08:34:47;26.23;;;15.77;;
46447;SDS011;32145;50.390;30.778;2024-03-02T08:37:42;29.83;;;15.20;;
46447;SDS011;32145;50.390;30.778;2024-03-02T08:40:26;25.75;;;15.25;;
46447;SDS011;32145;50.390;30.778;2024-03-02T08:43:10;24.52;;;15.45;;
46447;SDS011;32145;50.390;30.778;2024-03-02T08:46:00;28.85;;;16.27;;
46447;SDS011;32145;50.390;30.778;2024-03-02T08:48:57;27.40;;;15.98;;
46447;SDS011;32145;50.390;30.778;2024-03-02T08:51:40;28.42;;;15.52;;
46447;SDS011;32145;50.390;30.778;2024-03-02T08:54:29;23.87;;;14.37;;
46447;SDS011;32145;50.390;30.778;2024-03-02T08:57:27;26.08;;;15.48;;
46447;SDS011;32145;50.390;30.778;2024-03-02T09:00:21;24.20;;;15.10;;
46447;SDS011;32145;50.390;30.778;2024-03-02T09:03:07;24.42;;;13.07;;
46447;SDS011;32145;50.390;30.778;2024-03-02T09:05:57;24.65;;;13.60;;
46447;SDS011;32145;50.390;30.778;2024-03-02T09:08:41;24.95;;;13.75;;
46447;SDS011;32145;50.390;30.778;2024-03-02T09:11:32;23.98;;;13.07;;
46447;SDS011;32145;50.390;30.778;2024-03-02T09:14:26;22.80;;;11.75;;
46447;SDS011;32145;50.390;30.778;2024-03-02T09:17:10;22.92;;;12.50;;
46447;SDS011;32145;50.390;30.778;2024-03-02T09:20:06;21.08;;;11.52;;
46447;SDS011;32145;50.390;30.778;2024-03-02T09:22:51;20.63;;;11.60;;
46447;SDS011;32145;50.390;30.778;2024-03-02T09:25:47;20.60;;;11.13;;
46447;SDS011;32145;50.390;30.778;2024-03-02T09:28:32;19.27;;;10.48;;
46447;SDS011;32145;50.390;30.778;2024-03-02T09:31:26;18.50;;;10.60;;
46447;SDS011;32145;50.390;30.778;2024-03-02T09:34:21;23.40;;;11.75;;
46447;SDS011;32145;50.390;30.778;2024-03-02T09:37:16;16.85;;;10.77;;
46447;SDS011;32145;50.390;30.778;2024-03-02T09:40:00;19.27;;;11.30;;
46447;SDS011;32145;50.390;30.778;2024-03-02T09:42:44;19.17;;;10.38;;
46447;SDS011;32145;50.390;30.778;2024-03-02T09:45:41;20.20;;;9.95;;
46447;SDS011;32145;50.390;30.778;2024-03-02T09:48:26;18.75;;;10.00;;
46447;SDS011;32145;50.390;30.778;2024-03-02T09:51:20;17.00;;;9.98;;
46447;SDS011;32145;50.390;30.778;2024-03-02T09:54:16;21.33;;;10.70;;
46447;SDS011;32145;50.390;30.778;2024-03-02T09:57:06;16.92;;;10.40;;
46447;SDS011;32145;50.390;30.778;2024-03-02T09:59:51;20.80;;;10.70;;
46447;SDS011;32145;50.390;30.778;2024-03-02T10:02:47;19.27;;;10.88;;
46447;SDS011;32145;50.390;30.778;2024-03-02T10:05:31;18.10;;;9.85;;
46447;SDS011;32145;50.390;30.778;2024-03-02T10:08:15;15.60;;;8.70;;
46447;SDS011;32145;50.390;30.778;2024-03-02T10:11:15;15.90;;;8.82;;
46447;SDS011;32145;50.390;30.778;2024-03-02T10:14:10;15.30;;;8.30;;
46447;SDS011;32145;50.390;30.778;2024-03-02T10:17:01;16.40;;;8.27;;
46447;SDS011;32145;50.390;30.778;2024-03-02T10:22:40;16.35;;;8.45;;
46447;SDS011;32145;50.390;30.778;2024-03-02T10:25:34;17.88;;;9.48;;
46447;SDS011;32145;50.390;30.778;2024-03-02T10:28:30;20.73;;;9.23;;
46447;SDS011;32145;50.390;30.778;2024-03-02T10:31:14;16.25;;;9.10;;
46447;SDS011;32145;50.390;30.778;2024-03-02T10:33:58;16.30;;;9.10;;
46447;SDS011;32145;50.390;30.778;2024-03-02T10:36:43;13.68;;;8.82;;
46447;SDS011;32145;50.390;30.778;2024-03-02T10:39:38;16.02;;;9.55;;
46447;SDS011;32145;50.390;30.778;2024-03-02T10:42:32;20.15;;;9.30;;
46447;SDS011;32145;50.390;30.778;2024-03-02T10:45:29;19.20;;;9.38;;
46447;SDS011;32145;50.390;30.778;2024-03-02T10:48:13;16.50;;;9.60;;
46447;SDS011;32145;50.390;30.778;2024-03-02T10:50:58;22.95;;;11.50;;
46447;SDS011;32145;50.390;30.778;2024-03-02T10:53:54;16.50;;;9.18;;
46447;SDS011;32145;50.390;30.778;2024-03-02T10:56:39;19.52;;;9.57;;
46447;SDS011;32145;50.390;30.778;2024-03-02T10:59:26;16.40;;;9.40;;
46447;SDS011;32145;50.390;30.778;2024-03-02T11:05:10;17.50;;;9.45;;
46447;SDS011;32145;50.390;30.778;2024-03-02T11:07:57;16.85;;;10.05;;
46447;SDS011;32145;50.390;30.778;2024-03-02T11:10:57;18.42;;;9.80;;
46447;SDS011;32145;50.390;30.778;2024-03-02T11:13:42;19.83;;;9.93;;
46447;SDS011;32145;50.390;30.778;2024-03-02T11:16:33;16.30;;;10.00;;
46447;SDS011;32145;50.390;30.778;2024-03-02T11:19:20;18.80;;;10.68;;
46447;SDS011;32145;50.390;30.778;2024-03-02T11:22:15;21.63;;;10.45;;
46447;SDS011;32145;50.390;30.778;2024-03-02T11:25:00;18.05;;;9.68;;
46447;SDS011;32145;50.390;30.778;2024-03-02T11:28:01;19.25;;;10.00;;
46447;SDS011;32145;50.390;30.778;2024-03-02T11:30:53;17.15;;;9.68;;
46447;SDS011;32145;50.390;30.778;2024-03-02T11:33:49;18.45;;;9.88;;
46447;SDS011;32145;50.390;30.778;2024-03-02T11:36:47;19.27;;;10.80;;
46447;SDS011;32145;50.390;30.778;2024-03-02T11:39:32;18.13;;;10.57;;
46447;SDS011;32145;50.390;30.778;2024-03-02T11:42:18;17.98;;;10.90;;
46447;SDS011;32145;50.390;30.778;2024-03-02T11:45:08;18.42;;;11.13;;
46447;SDS011;32145;50.390;30.778;2024-03-02T11:47:53;19.38;;;10.18;;
46447;SDS011;32145;50.390;30.778;2024-03-02T11:50:40;20.88;;;11.07;;
46447;SDS011;32145;50.390;30.778;2024-03-02T11:53:36;19.10;;;10.68;;
46447;SDS011;32145;50.390;30.778;2024-03-02T11:56:22;18.95;;;10.82;;
46447;SDS011;32145;50.390;30.778;2024-03-02T11:59:09;22.98;;;12.02;;
46447;SDS011;32145;50.390;30.778;2024-03-02T12:02:03;22.30;;;12.45;;
46447;SDS011;32145;50.390;30.778;2024-03-02T12:04:48;22.55;;;13.18;;
46447;SDS011;32145;50.390;30.778;2024-03-02T12:07:43;26.85;;;12.98;;
46447;SDS011;32145;50.390;30.778;2024-03-02T12:10:28;23.02;;;11.82;;
46447;SDS011;32145;50.390;30.778;2024-03-02T12:13:15;18.42;;;10.85;;
46447;SDS011;32145;50.390;30.778;2024-03-02T12:16:09;20.38;;;12.35;;
46447;SDS011;32145;50.390;30.778;2024-03-02T12:19:03;23.05;;;12.45;;
46447;SDS011;32145;50.390;30.778;2024-03-02T12:21:48;24.02;;;11.90;;
46447;SDS011;32145;50.390;30.778;2024-03-02T12:24:44;22.83;;;11.75;;
46447;SDS011;32145;50.390;30.778;2024-03-02T12:27:30;21.65;;;11.27;;
46447;SDS011;32145;50.390;30.778;2024-03-02T12:30:14;21.63;;;12.02;;
46447;SDS011;32145;50.390;30.778;2024-03-02T12:33:05;22.85;;;13.23;;
46447;SDS011;32145;50.390;30.778;2024-03-02T12:35:50;24.17;;;12.43;;
46447;SDS011;32145;50.390;30.778;2024-03-02T12:38:34;21.02;;;12.07;;
46447;SDS011;32145;50.390;30.778;2024-03-02T12:41:19;28.23;;;13.18;;
46447;SDS011;32145;50.390;30.778;2024-03-02T12:44:05;22.63;;;12.18;;
46447;SDS011;32145;50.390;30.778;2024-03-02T12:46:59;24.48;;;12.02;;
46447;SDS011;32145;50.390;30.778;2024-03-02T12:49:44;21.23;;;10.80;;
46447;SDS011;32145;50.390;30.778;2024-03-02T12:52:38;22.02;;;10.80;;
46447;SDS011;32145;50.390;30.778;2024-03-02T12:55:23;20.95;;;12.13;;
46447;SDS011;32145;50.390;30.778;2024-03-02T12:58:08;21.10;;;11.18;;
46447;SDS011;32145;50.390;30.778;2024-03-02T13:01:09;20.48;;;11.70;;
46447;SDS011;32145;50.390;30.778;2024-03-02T13:03:53;20.85;;;10.75;;
46447;SDS011;32145;50.390;30.778;2024-03-02T13:06:50;21.85;;;11.65;;
46447;SDS011;32145;50.390;30.778;2024-03-02T13:09:36;19.90;;;11.52;;
46447;SDS011;32145;50.390;30.778;2024-03-02T13:12:21;20.80;;;10.60;;
46447;SDS011;32145;50.390;30.778;2024-03-02T13:15:12;19.23;;;10.68;;
46447;SDS011;32145;50.390;30.778;2024-03-02T13:18:08;20.92;;;10.40;;
46447;SDS011;32145;50.390;30.778;2024-03-02T13:20:52;22.40;;;10.55;;
46447;SDS011;32145;50.390;30.778;2024-03-02T13:23:42;20.48;;;11.07;;
46447;SDS011;32145;50.390;30.778;2024-03-02T13:26:37;24.58;;;12.05;;
46447;SDS011;32145;50.390;30.778;2024-03-02T13:29:31;21.10;;;10.68;;
46447;SDS011;32145;50.390;30.778;2024-03-02T13:32:25;24.13;;;11.90;;
46447;SDS011;32145;50.390;30.778;2024-03-02T13:35:21;20.83;;;11.55;;
46447;SDS011;32145;50.390;30.778;2024-03-02T13:38:15;22.10;;;11.60;;
46447;SDS011;32145;50.390;30.778;2024-03-02T13:41:10;24.73;;;12.02;;
46447;SDS011;32145;50.390;30.778;2024-03-02T13:44:04;20.77;;;10.50;;
46447;SDS011;32145;50.390;30.778;2024-03-02T13:46:59;21.35;;;9.38;;
46447;SDS011;32145;50.390;30.778;2024-03-02T13:49:54;21.75;;;9.85;;
46447;SDS011;32145;50.390;30.778;2024-03-02T13:52:49;19.63;;;10.50;;
46447;SDS011;32145;50.390;30.778;2024-03-02T13:55:44;19.67;;;10.07;;
46447;SDS011;32145;50.390;30.778;2024-03-02T13:58:38;21.13;;;10.50;;
46447;SDS011;32145;50.390;30.778;2024-03-02T14:01:32;19.35;;;10.70;;
46447;SDS011;32145;50.390;30.778;2024-03-02T14:04:29;20.70;;;11.00;;
46447;SDS011;32145;50.390;30.778;2024-03-02T14:07:26;20.52;;;10.40;;
46447;SDS011;32145;50.390;30.778;2024-03-02T14:10:23;19.25;;;10.30;;
46447;SDS011;32145;50.390;30.778;2024-03-02T14:13:19;20.38;;;10.23;;
46447;SDS011;32145;50.390;30.778;2024-03-02T14:16:14;20.40;;;10.35;;
46447;SDS011;32145;50.390;30.778;2024-03-02T14:19:08;18.48;;;10.50;;
46447;SDS011;32145;50.390;30.778;2024-03-02T14:22:03;18.27;;;10.55;;
46447;SDS011;32145;50.390;30.778;2024-03-02T14:24:59;26.20;;;11.07;;
46447;SDS011;32145;50.390;30.778;2024-03-02T14:27:57;18.02;;;10.57;;
46447;SDS011;32145;50.390;30.778;2024-03-02T14:30:53;18.40;;;9.95;;
46447;SDS011;32145;50.390;30.778;2024-03-02T14:33:50;16.88;;;9.85;;
46447;SDS011;32145;50.390;30.778;2024-03-02T14:36:47;12.75;;;7.70;;
46447;SDS011;32145;50.390;30.778;2024-03-02T14:39:43;18.35;;;9.02;;
46447;SDS011;32145;50.390;30.778;2024-03-02T14:42:40;25.70;;;15.65;;
46447;SDS011;32145;50.390;30.778;2024-03-02T14:45:37;30.50;;;17.40;;
46447;SDS011;32145;50.390;30.778;2024-03-02T14:48:34;25.92;;;15.68;;
46447;SDS011;32145;50.390;30.778;2024-03-02T14:51:30;24.90;;;15.20;;
46447;SDS011;32145;50.390;30.778;2024-03-02T14:54:26;23.50;;;14.63;;
46447;SDS011;32145;50.390;30.778;2024-03-02T14:57:23;26.30;;;14.82;;
46447;SDS011;32145;50.390;30.778;2024-03-02T15:00:19;21.70;;;11.65;;
46447;SDS011;32145;50.390;30.778;2024-03-02T15:03:17;18.17;;;11.07;;
46447;SDS011;32145;50.390;30.778;2024-03-02T15:06:13;16.15;;;8.80;;
46447;SDS011;32145;50.390;30.778;2024-03-02T15:09:09;22.05;;;12.40;;
46447;SDS011;32145;50.390;30.778;2024-03-02T15:12:06;17.60;;;8.13;;
46447;SDS011;32145;50.390;30.778;2024-03-02T15:15:03;40.97;;;22.35;;
46447;SDS011;32145;50.390;30.778;2024-03-02T15:18:00;32.08;;;18.02;;
46447;SDS011;32145;50.390;30.778;2024-03-02T15:20:57;29.27;;;18.73;;
46447;SDS011;32145;50.390;30.778;2024-03-02T15:23:52;16.20;;;8.80;;
46447;SDS011;32145;50.390;30.778;2024-03-02T15:26:46;14.13;;;7.85;;
46447;SDS011;32145;50.390;30.778;2024-03-02T15:29:40;15.70;;;8.18;;
46447;SDS011;32145;50.390;30.778;2024-03-02T15:32:35;16.23;;;8.35;;
46447;SDS011;32145;50.390;30.778;2024-03-02T15:35:29;16.02;;;8.95;;
46447;SDS011;32145;50.390;30.778;2024-03-02T15:38:25;15.45;;;7.88;;
46447;SDS011;32145;50.390;30.778;2024-03-02T15:41:19;14.18;;;7.63;;
46447;SDS011;32145;50.390;30.778;2024-03-02T15:44:13;14.98;;;7.57;;
46447;SDS011;32145;50.390;30.778;2024-03-02T15:47:07;13.70;;;7.40;;
46447;SDS011;32145;50.390;30.778;2024-03-02T15:50:02;14.80;;;7.57;;
46447;SDS011;32145;50.390;30.778;2024-03-02T15:52:57;16.63;;;7.78;;
46447;SDS011;32145;50.390;30.778;2024-03-02T15:55:52;12.75;;;6.43;;
46447;SDS011;32145;50.390;30.778;2024-03-02T15:58:47;15.35;;;7.18;;
46447;SDS011;32145;50.390;30.778;2024-03-02T16:01:41;13.82;;;7.50;;
46447;SDS011;32145;50.390;30.778;2024-03-02T16:04:36;18.27;;;8.05;;
46447;SDS011;32145;50.390;30.778;2024-03-02T16:07:30;12.65;;;6.63;;
46447;SDS011;32145;50.390;30.778;2024-03-02T16:10:25;14.93;;;7.88;;
46447;SDS011;32145;50.390;30.778;2024-03-02T16:13:21;14.82;;;7.57;;
46447;SDS011;32145;50.390;30.778;2024-03-02T16:16:15;16.42;;;7.90;;
46447;SDS011;32145;50.390;30.778;2024-03-02T16:19:09;14.32;;;7.72;;
46447;SDS011;32145;50.390;30.778;2024-03-02T16:22:03;14.95;;;6.95;;
46447;SDS011;32145;50.390;30.778;2024-03-02T16:24:58;17.10;;;8.63;;
46447;SDS011;32145;50.390;30.778;2024-03-02T16:27:52;15.60;;;8.05;;
46447;SDS011;32145;50.390;30.778;2024-03-02T16:30:48;17.42;;;8.35;;
46447;SDS011;32145;50.390;30.778;2024-03-02T16:33:42;23.15;;;10.77;;
46447;SDS011;32145;50.390;30.778;2024-03-02T16:36:36;23.42;;;10.68;;
46447;SDS011;32145;50.390;30.778;2024-03-02T16:39:20;34.80;;;16.02;;
46447;SDS011;32145;50.390;30.778;2024-03-02T16:42:17;48.70;;;22.02;;
46447;SDS011;32145;50.390;30.778;2024-03-02T16:45:01;77.75;;;35.67;;
46447;SDS011;32145;50.390;30.778;2024-03-02T16:47:53;95.50;;;47.00;;
46447;SDS011;32145;50.390;30.778;2024-03-02T16:50:37;283.42;;;102.88;;